Time;durP1;ratioP1;P1;durP2;ratioP2;P2;SDS_P1;SDS_P2;PMS_P1;PMS_P2;Temp;Humidity;BMP_temperature;BMP_pressure;BME280_temperature;BME280_humidity;BME280_pressure;Samples;Min_cycle;Max_cycle;Signal;HPM_P1;HPM_P2
2023/03/06 00:00:25;;;;;;;14.63;7.60;;;5.00;65.20;;;;;;5034384;28;20136;-68
2023/03/06 00:02:51;;;;;;;13.00;7.38;;;5.00;65.50;;;;;;5033433;28;20040;-68
2023/03/06 00:05:17;;;;;;;11.30;7.05;;;5.00;65.50;;;;;;5033984;28;20052;-68
2023/03/06 00:07:43;;;;;;;13.63;7.20;;;4.90;65.40;;;;;;5033516;28;20470;-69
2023/03/06 00:10:21;;;;;;;11.90;6.93;;;4.90;65.60;;;;;;5034095;28;20431;-68
2023/03/06 00:12:47;;;;;;;13.55;7.60;;;4.90;65.70;;;;;;5033618;28;20037;-68
2023/03/06 00:15:13;;;;;;;11.38;6.97;;;4.90;65.40;;;;;;5034154;28;20033;-68
2023/03/06 00:17:39;;;;;;;15.50;7.18;;;5.00;65.50;;;;;;5033647;28;20033;-72
2023/03/06 00:20:06;;;;;;;13.40;6.85;;;4.90;65.50;;;;;;5033921;28;20478;-68
2023/03/06 00:22:32;;;;;;;12.23;6.68;;;5.00;65.10;;;;;;5033934;28;20029;-70
2023/03/06 00:24:58;;;;;;;12.63;6.82;;;5.00;64.90;;;;;;5033570;28;20049;-69
2023/03/06 00:27:25;;;;;;;12.15;6.78;;;4.90;64.70;;;;;;5034001;28;20029;-69
2023/03/06 00:29:55;;;;;;;13.60;6.60;;;5.00;64.50;;;;;;5033711;28;20030;-70
2023/03/06 00:32:21;;;;;;;9.18;5.90;;;4.90;64.10;;;;;;5034144;28;20057;-69
2023/03/06 00:34:53;;;;;;;10.63;6.22;;;4.90;64.70;;;;;;5033826;28;20064;-69
2023/03/06 00:37:20;;;;;;;9.10;5.47;;;4.90;63.90;;;;;;5033553;28;20064;-68
2023/03/06 00:39:48;;;;;;;12.77;6.43;;;4.90;63.60;;;;;;5035911;28;20560;-68
2023/03/06 00:42:14;;;;;;;12.43;5.82;;;4.90;63.20;;;;;;5053320;28;20052;-69
2023/03/06 00:44:40;;;;;;;11.68;6.45;;;4.90;63.20;;;;;;5044393;28;20033;-73
2023/03/06 00:47:06;;;;;;;11.50;5.57;;;4.90;63.50;;;;;;5033559;28;20474;-68
2023/03/06 00:49:31;;;;;;;10.45;5.70;;;4.80;63.70;;;;;;5033461;28;20037;-68
2023/03/06 00:51:57;;;;;;;11.20;5.78;;;4.70;63.90;;;;;;5033201;28;20358;-70
2023/03/06 00:54:22;;;;;;;10.40;4.97;;;4.70;63.40;;;;;;5015798;28;20083;-69
2023/03/06 00:56:48;;;;;;;9.38;5.80;;;4.80;63.00;;;;;;5032811;28;20065;-69
2023/03/06 00:59:14;;;;;;;11.95;5.05;;;4.70;62.80;;;;;;5033030;28;20033;-69
2023/03/06 01:01:39;;;;;;;8.15;4.75;;;4.80;62.80;;;;;;5033562;28;20029;-69
2023/03/06 01:04:05;;;;;;;8.80;5.05;;;4.80;62.40;;;;;;5032855;28;20061;-69
2023/03/06 01:06:31;;;;;;;9.50;5.05;;;4.80;62.40;;;;;;5033170;28;20091;-70
2023/03/06 01:08:57;;;;;;;8.35;4.88;;;4.80;62.30;;;;;;5032740;28;20034;-70
2023/03/06 01:11:23;;;;;;;7.32;3.95;;;4.80;62.10;;;;;;5032795;28;20377;-69
2023/03/06 01:13:49;;;;;;;9.27;4.28;;;4.80;61.80;;;;;;5032647;28;20035;-69
2023/03/06 01:16:17;;;;;;;9.73;4.90;;;4.80;62.20;;;;;;5033280;28;20053;-69
2023/03/06 01:18:43;;;;;;;7.10;4.05;;;4.80;62.00;;;;;;5032726;28;20030;-72
2023/03/06 01:21:09;;;;;;;8.55;4.03;;;4.70;61.60;;;;;;5033167;28;20029;-69
2023/03/06 01:23:35;;;;;;;8.52;4.55;;;4.70;61.90;;;;;;5015336;28;20462;-69
2023/03/06 01:26:00;;;;;;;5.60;4.00;;;4.70;61.90;;;;;;5032695;28;20057;-69
2023/03/06 01:28:26;;;;;;;6.68;3.97;;;4.70;61.80;;;;;;5032632;28;20470;-69
2023/03/06 01:30:52;;;;;;;7.95;3.88;;;4.70;61.60;;;;;;5032567;28;20029;-69
2023/03/06 01:33:18;;;;;;;7.90;3.78;;;4.70;61.20;;;;;;5033015;28;20105;-69
2023/03/06 01:35:44;;;;;;;9.80;4.38;;;4.80;61.10;;;;;;5015110;28;20049;-74
2023/03/06 01:38:09;;;;;;;8.43;4.30;;;4.80;60.80;;;;;;5032070;28;20079;-69
2023/03/06 01:40:36;;;;;;;6.05;3.78;;;4.80;60.80;;;;;;5032615;28;20092;-68
2023/03/06 01:43:24;;;;;;;7.57;3.50;;;4.70;60.50;;;;;;5032373;28;20041;-69
2023/03/06 01:45:50;;;;;;;7.30;4.35;;;4.80;60.50;;;;;;5032564;28;20107;-69
2023/03/06 01:48:22;;;;;;;8.02;4.15;;;4.70;60.70;;;;;;5032662;28;20497;-69
2023/03/06 01:50:49;;;;;;;8.23;4.10;;;4.70;60.60;;;;;;5032106;28;20026;-69
2023/03/06 01:53:15;;;;;;;6.93;3.72;;;4.80;60.70;;;;;;5032662;28;20071;-69
2023/03/06 01:55:41;;;;;;;5.47;3.22;;;4.80;60.50;;;;;;5032793;28;20041;-68
2023/03/06 01:58:11;;;;;;;6.03;3.53;;;4.80;60.20;;;;;;5031907;28;20021;-69
2023/03/06 02:00:36;;;;;;;7.20;3.60;;;4.80;60.20;;;;;;5032657;28;20045;-69
2023/03/06 02:03:07;;;;;;;6.60;3.88;;;4.70;60.00;;;;;;5032113;28;20022;-69
2023/03/06 02:05:33;;;;;;;7.63;4.00;;;4.70;60.10;;;;;;5032831;28;20029;-68
2023/03/06 02:08:01;;;;;;;7.10;4.03;;;4.70;60.10;;;;;;5032213;28;20462;-70
2023/03/06 02:10:26;;;;;;;5.70;3.95;;;4.70;60.00;;;;;;5032647;28;20061;-69
2023/03/06 02:12:52;;;;;;;6.07;4.00;;;4.70;59.70;;;;;;5031939;28;20111;-69
2023/03/06 02:15:21;;;;;;;6.50;3.53;;;4.70;59.70;;;;;;5032594;28;20030;-69
2023/03/06 02:17:48;;;;;;;6.28;3.38;;;4.70;59.80;;;;;;5031798;28;20472;-72
2023/03/06 02:20:23;;;;;;;5.50;3.42;;;4.70;60.00;;;;;;5032693;28;20049;-70
2023/03/06 02:22:56;;;;;;;6.20;3.60;;;4.80;59.80;;;;;;5031722;28;20502;-69
2023/03/06 02:25:49;;;;;;;6.90;3.47;;;4.80;59.60;;;;;;5032194;28;20488;-69
2023/03/06 02:28:21;;;;;;;5.78;3.35;;;4.80;59.60;;;;;;5032563;28;20025;-69
2023/03/06 02:30:48;;;;;;;6.78;3.30;;;4.80;59.30;;;;;;5032562;28;20029;-69
2023/03/06 02:33:16;;;;;;;7.03;3.35;;;4.80;59.20;;;;;;5014706;28;20025;-69
2023/03/06 02:35:59;;;;;;;6.28;3.13;;;4.80;59.10;;;;;;5032293;28;20437;-69
2023/03/06 02:38:41;;;;;;;6.68;3.13;;;4.90;59.00;;;;;;5048812;28;20049;-69
2023/03/06 02:41:08;;;;;;;6.63;3.70;;;4.90;58.80;;;;;;5055620;28;20024;-69
2023/03/06 02:43:37;;;;;;;5.50;3.10;;;4.80;58.80;;;;;;5056028;28;20450;-69
2023/03/06 02:46:03;;;;;;;7.43;3.47;;;4.80;58.90;;;;;;5055240;28;20079;-69
2023/03/06 02:48:28;;;;;;;7.57;3.40;;;4.80;59.30;;;;;;5056513;28;20464;-69
2023/03/06 02:50:54;;;;;;;7.03;3.60;;;4.80;58.90;;;;;;5055765;28;20032;-69
2023/03/06 02:53:20;;;;;;;6.90;3.33;;;4.80;58.80;;;;;;5056009;28;20032;-69
2023/03/06 02:55:47;;;;;;;5.90;3.22;;;4.80;58.70;;;;;;5055721;28;20468;-69
2023/03/06 02:58:13;;;;;;;5.65;3.33;;;4.80;58.80;;;;;;5055222;28;20128;-69
2023/03/06 03:00:39;;;;;;;8.18;3.78;;;4.80;58.90;;;;;;5055666;28;20112;-69
2023/03/06 03:03:05;;;;;;;7.82;3.20;;;4.70;58.90;;;;;;5055201;28;20060;-69
2023/03/06 03:05:31;;;;;;;7.75;3.35;;;4.70;59.10;;;;;;5055545;28;20025;-69
2023/03/06 03:07:57;;;;;;;6.78;3.25;;;4.70;59.40;;;;;;5055132;28;20076;-69
2023/03/06 03:10:23;;;;;;;6.13;3.65;;;4.70;59.60;;;;;;5055175;28;20539;-69
2023/03/06 03:12:49;;;;;;;5.18;3.42;;;4.70;59.40;;;;;;5055167;28;20128;-69
2023/03/06 03:15:15;;;;;;;6.68;3.70;;;4.60;59.20;;;;;;5054978;28;20487;-69
2023/03/06 03:17:41;;;;;;;5.43;3.10;;;4.60;59.20;;;;;;5054960;28;20032;-68
2023/03/06 03:20:11;;;;;;;8.88;3.38;;;4.60;59.30;;;;;;5054869;28;20032;-69
2023/03/06 03:22:36;;;;;;;7.75;3.88;;;4.60;59.20;;;;;;5055213;28;20029;-69
2023/03/06 03:25:03;;;;;;;6.05;3.38;;;4.60;59.30;;;;;;5054793;28;20048;-69
2023/03/06 03:27:28;;;;;;;9.23;3.85;;;4.60;59.10;;;;;;5055136;28;20033;-69
2023/03/06 03:29:57;;;;;;;6.35;3.40;;;4.70;59.20;;;;;;5054606;28;20568;-69
2023/03/06 03:32:23;;;;;;;6.85;3.85;;;4.70;59.10;;;;;;5055004;28;20029;-69
2023/03/06 03:34:49;;;;;;;6.22;3.65;;;4.70;58.90;;;;;;5055005;28;20037;-69
2023/03/06 03:37:14;;;;;;;7.47;3.72;;;4.70;58.90;;;;;;5053927;28;20121;-69
2023/03/06 03:39:40;;;;;;;6.55;3.55;;;4.70;58.90;;;;;;5054353;28;20076;-69
2023/03/06 03:42:06;;;;;;;4.72;2.90;;;4.70;59.00;;;;;;5054038;28;20063;-69
2023/03/06 03:44:31;;;;;;;7.93;3.97;;;4.70;59.00;;;;;;5054719;28;20029;-69
2023/03/06 03:46:57;;;;;;;6.78;3.63;;;4.70;59.10;;;;;;5053760;28;20025;-70
2023/03/06 03:49:23;;;;;;;6.57;3.70;;;4.70;59.30;;;;;;5054256;28;20033;-68
2023/03/06 03:51:49;;;;;;;5.93;3.60;;;4.70;59.10;;;;;;5054449;28;20056;-69
2023/03/06 03:54:15;;;;;;;5.95;3.10;;;4.70;59.00;;;;;;5054207;28;20449;-69
2023/03/06 03:56:41;;;;;;;6.18;3.75;;;4.70;58.90;;;;;;5054559;28;20025;-69
2023/03/06 03:59:07;;;;;;;5.65;3.22;;;4.70;58.80;;;;;;5053939;28;20037;-69
2023/03/06 04:01:33;;;;;;;6.20;3.85;;;4.70;59.00;;;;;;5054375;28;20025;-69
2023/03/06 04:03:59;;;;;;;6.35;3.40;;;4.70;59.20;;;;;;5054274;28;20044;-69
2023/03/06 04:06:24;;;;;;;6.95;3.60;;;4.70;59.20;;;;;;5054339;28;20025;-69
2023/03/06 04:08:50;;;;;;;5.90;2.97;;;4.70;59.10;;;;;;5054360;28;20036;-69
2023/03/06 04:11:16;;;;;;;8.13;3.47;;;4.60;59.10;;;;;;5053844;28;20029;-69
2023/03/06 04:13:41;;;;;;;5.80;3.38;;;4.60;59.30;;;;;;5053959;28;20027;-69
2023/03/06 04:16:08;;;;;;;5.72;3.80;;;4.60;59.70;;;;;;5053753;28;20468;-69
2023/03/06 04:18:33;;;;;;;8.40;3.90;;;4.60;59.70;;;;;;5054100;28;20067;-69
2023/03/06 04:20:59;;;;;;;5.47;3.58;;;4.60;59.80;;;;;;5053407;28;20029;-70
2023/03/06 04:23:26;;;;;;;7.35;3.80;;;4.60;59.90;;;;;;5053915;28;20040;-68
2023/03/06 04:25:52;;;;;;;6.55;3.80;;;4.70;59.80;;;;;;5053684;28;20469;-69
2023/03/06 04:28:18;;;;;;;5.30;3.15;;;4.70;59.70;;;;;;5053339;28;20036;-68
2023/03/06 04:30:44;;;;;;;5.05;3.67;;;4.70;59.50;;;;;;5052169;28;20060;-68
2023/03/06 04:33:10;;;;;;;6.60;3.70;;;4.70;59.70;;;;;;5052959;28;20057;-70
2023/03/06 04:35:36;;;;;;;5.78;3.60;;;4.70;59.90;;;;;;5053499;28;20036;-70
2023/03/06 04:38:02;;;;;;;8.05;3.55;;;4.70;60.00;;;;;;5052369;28;20401;-70
2023/03/06 04:40:30;;;;;;;7.03;4.00;;;4.70;60.00;;;;;;5053156;28;20358;-70
2023/03/06 04:42:57;;;;;;;6.05;3.90;;;4.70;60.30;;;;;;5053621;28;20373;-70
2023/03/06 04:45:24;;;;;;;10.60;4.50;;;4.60;60.50;;;;;;5053129;28;20053;-69
2023/03/06 04:47:50;;;;;;;9.65;4.57;;;4.70;61.00;;;;;;5053339;28;20075;-70
2023/03/06 04:50:16;;;;;;;10.60;5.10;;;4.60;61.10;;;;;;5052669;28;20060;-70
2023/03/06 04:52:42;;;;;;;14.40;4.75;;;4.60;61.40;;;;;;5053368;28;20024;-69
2023/03/06 04:55:11;;;;;;;12.27;5.22;;;4.60;61.50;;;;;;5052587;28;20031;-71
2023/03/06 04:57:39;;;;;;;9.60;5.03;;;4.60;61.70;;;;;;5053425;28;20103;-69
2023/03/06 05:00:12;;;;;;;10.25;5.45;;;4.60;62.30;;;;;;5052592;28;20056;-70
2023/03/06 05:02:38;;;;;;;11.77;5.75;;;4.60;62.00;;;;;;5052594;28;20053;-70
2023/03/06 05:05:04;;;;;;;11.98;6.22;;;4.60;62.40;;;;;;5052291;28;20496;-70
2023/03/06 05:07:30;;;;;;;13.18;6.70;;;4.60;62.70;;;;;;5053033;28;20032;-69
2023/03/06 05:09:55;;;;;;;11.27;6.00;;;4.60;63.00;;;;;;5052977;28;20111;-70
2023/03/06 05:12:21;;;;;;;12.80;6.45;;;4.60;63.20;;;;;;5052828;28;20029;-69
2023/03/06 05:14:47;;;;;;;12.80;6.95;;;4.60;63.30;;;;;;5053058;28;20090;-69
2023/03/06 05:17:12;;;;;;;15.02;7.05;;;4.60;63.50;;;;;;5053361;28;20083;-69
2023/03/06 05:19:38;;;;;;;12.90;6.47;;;4.60;63.40;;;;;;5053041;28;20099;-69
2023/03/06 05:22:04;;;;;;;11.60;6.90;;;4.60;63.60;;;;;;5052631;28;20060;-70
2023/03/06 05:24:30;;;;;;;13.10;7.63;;;4.60;63.60;;;;;;5052836;28;20053;-70
2023/03/06 05:26:55;;;;;;;12.93;6.88;;;4.60;63.60;;;;;;5052860;28;20029;-69
2023/03/06 05:29:21;;;;;;;11.07;6.53;;;4.60;63.70;;;;;;5052818;28;20060;-69
2023/03/06 05:31:47;;;;;;;13.70;7.47;;;4.60;63.80;;;;;;5052684;28;20039;-70
2023/03/06 05:34:14;;;;;;;13.50;7.38;;;4.60;63.80;;;;;;5052341;28;20032;-70
2023/03/06 05:36:40;;;;;;;16.70;7.90;;;4.50;64.00;;;;;;5052745;28;20060;-70
2023/03/06 05:39:06;;;;;;;13.45;7.90;;;4.50;64.00;;;;;;5052294;28;20089;-70
2023/03/06 05:41:31;;;;;;;16.90;7.75;;;4.60;64.10;;;;;;5053011;28;20024;-70
2023/03/06 05:43:57;;;;;;;15.65;7.45;;;4.60;64.00;;;;;;5052731;28;20036;-69
2023/03/06 05:46:24;;;;;;;13.05;7.13;;;4.60;64.00;;;;;;5052248;28;20022;-69
2023/03/06 05:48:52;;;;;;;13.50;7.55;;;4.60;64.10;;;;;;5052522;28;20488;-70
2023/03/06 05:51:18;;;;;;;13.40;6.85;;;4.60;64.00;;;;;;5052201;28;20029;-70
2023/03/06 05:53:44;;;;;;;15.52;7.15;;;4.60;64.20;;;;;;5052731;28;20021;-69
2023/03/06 05:56:10;;;;;;;25.95;12.60;;;4.60;64.20;;;;;;5052265;28;20031;-70
2023/03/06 05:58:36;;;;;;;21.70;10.07;;;4.60;64.10;;;;;;5052722;28;20363;-70
2023/03/06 06:01:10;;;;;;;19.48;8.07;;;4.60;64.30;;;;;;5052531;28;20075;-69
2023/03/06 06:03:36;;;;;;;14.90;7.47;;;4.60;64.30;;;;;;5052503;28;20033;-70
2023/03/06 06:06:10;;;;;;;18.33;8.65;;;4.60;64.40;;;;;;5052286;28;20024;-70
2023/03/06 06:08:36;;;;;;;21.02;11.43;;;4.60;64.40;;;;;;5052331;28;20082;-69
2023/03/06 06:11:04;;;;;;;17.88;8.25;;;4.70;64.40;;;;;;5052379;28;20428;-70
2023/03/06 06:13:29;;;;;;;14.25;7.10;;;4.60;64.40;;;;;;5053936;28;20099;-70
2023/03/06 06:15:55;;;;;;;17.38;9.40;;;4.70;64.20;;;;;;5056198;28;20112;-70
2023/03/06 06:18:21;;;;;;;21.50;7.88;;;4.60;64.20;;;;;;5055904;28;20033;-70
2023/03/06 06:20:47;;;;;;;15.00;7.60;;;4.70;64.30;;;;;;5056228;28;20147;-70
2023/03/06 06:23:13;;;;;;;14.60;7.82;;;4.70;64.50;;;;;;5055960;28;20021;-70
2023/03/06 06:25:38;;;;;;;19.30;8.15;;;4.70;64.70;;;;;;5054853;28;20027;-70
2023/03/06 06:28:05;;;;;;;15.15;8.35;;;4.70;64.80;;;;;;5038208;28;20116;-70
2023/03/06 06:30:31;;;;;;;14.95;8.98;;;4.70;64.90;;;;;;5035958;28;20053;-70
2023/03/06 06:32:58;;;;;;;22.58;9.00;;;4.70;65.00;;;;;;5036519;28;20021;-70
2023/03/06 06:35:24;;;;;;;15.93;8.68;;;4.70;65.20;;;;;;5035480;28;20102;-70
2023/03/06 06:37:49;;;;;;;17.52;9.00;;;4.70;65.20;;;;;;5035860;28;20037;-70
2023/03/06 06:40:16;;;;;;;18.20;8.77;;;4.70;65.20;;;;;;5035819;28;20076;-70
2023/03/06 06:42:42;;;;;;;16.33;9.20;;;4.70;65.60;;;;;;5036007;28;20051;-70
2023/03/06 06:45:09;;;;;;;21.42;8.82;;;4.80;65.60;;;;;;5035354;28;20022;-70
2023/03/06 06:47:39;;;;;;;16.55;8.75;;;4.80;65.50;;;;;;5052016;28;20044;-70
2023/03/06 06:50:06;;;;;;;19.50;9.77;;;4.80;65.60;;;;;;5055852;28;20036;-70
2023/03/06 06:52:32;;;;;;;17.55;9.50;;;4.90;65.50;;;;;;5055658;28;20031;-69
2023/03/06 06:54:58;;;;;;;18.30;9.15;;;4.90;65.50;;;;;;5055452;28;20025;-69
2023/03/06 06:57:23;;;;;;;21.02;9.57;;;4.90;65.60;;;;;;5054648;28;20053;-70
2023/03/06 06:59:49;;;;;;;18.63;10.25;;;4.90;65.90;;;;;;5055210;28;20051;-70
2023/03/06 07:02:15;;;;;;;20.05;9.38;;;4.90;65.80;;;;;;5054595;28;20021;-70
2023/03/06 07:04:41;;;;;;;20.75;10.13;;;5.00;66.20;;;;;;5055467;28;20362;-69
2023/03/06 07:07:07;;;;;;;18.10;10.02;;;4.90;65.90;;;;;;5055382;28;20032;-69
2023/03/06 07:09:33;;;;;;;18.75;9.65;;;5.00;66.10;;;;;;5055352;28;20075;-69
2023/03/06 07:11:59;;;;;;;27.85;9.48;;;5.00;66.20;;;;;;5054891;28;20086;-70
2023/03/06 07:14:24;;;;;;;16.80;9.65;;;5.00;66.30;;;;;;5054725;28;20028;-70
2023/03/06 07:16:50;;;;;;;17.23;9.10;;;5.00;66.40;;;;;;5037180;28;20056;-69
2023/03/06 07:19:16;;;;;;;19.75;9.23;;;5.10;66.50;;;;;;5054638;28;20040;-70
2023/03/06 07:21:41;;;;;;;21.65;10.38;;;5.10;66.60;;;;;;5054789;28;20028;-69
2023/03/06 07:24:07;;;;;;;17.05;10.02;;;5.20;66.50;;;;;;5054783;28;20026;-69
2023/03/06 07:26:33;;;;;;;18.38;9.30;;;5.20;66.70;;;;;;5053951;28;20097;-68
2023/03/06 07:28:59;;;;;;;18.48;9.93;;;5.20;66.60;;;;;;5055004;28;20086;-68
2023/03/06 07:31:26;;;;;;;18.98;9.82;;;5.20;66.70;;;;;;5054546;28;20107;-69
2023/03/06 07:33:53;;;;;;;15.85;8.88;;;5.20;66.80;;;;;;5054862;28;20032;-68
2023/03/06 07:36:20;;;;;;;16.13;9.50;;;5.20;67.00;;;;;;5036377;28;20029;-68
2023/03/06 07:38:46;;;;;;;16.98;9.00;;;5.30;66.90;;;;;;5054460;28;20060;-68
2023/03/06 07:41:13;;;;;;;22.63;10.20;;;5.30;66.90;;;;;;5054034;28;20029;-74
2023/03/06 07:43:43;;;;;;;17.58;9.88;;;5.40;66.90;;;;;;5054383;28;20453;-68
2023/03/06 07:46:11;;;;;;;21.00;10.57;;;5.40;66.80;;;;;;5054388;28;20032;-69
2023/03/06 07:48:37;;;;;;;18.67;10.00;;;5.40;66.80;;;;;;5053801;28;20029;-69
2023/03/06 07:51:05;;;;;;;17.95;10.27;;;5.50;66.80;;;;;;5054009;28;20017;-68
2023/03/06 07:53:31;;;;;;;21.52;10.18;;;5.50;66.70;;;;;;5053743;28;20059;-68
2023/03/06 07:55:57;;;;;;;19.38;10.43;;;5.50;67.10;;;;;;5054252;28;20025;-68
2023/03/06 07:58:24;;;;;;;15.50;9.20;;;5.50;67.40;;;;;;5053468;28;20387;-69
2023/03/06 08:00:49;;;;;;;19.33;9.98;;;5.50;67.40;;;;;;5054378;28;20116;-70
2023/03/06 08:03:15;;;;;;;18.25;10.15;;;5.60;67.50;;;;;;5053778;28;20632;-70
2023/03/06 08:05:42;;;;;;;22.08;10.63;;;5.60;67.50;;;;;;5053927;28;20119;-69
2023/03/06 08:08:08;;;;;;;18.02;10.20;;;5.60;67.60;;;;;;5054270;28;20067;-69
2023/03/06 08:10:33;;;;;;;17.38;10.50;;;5.60;67.40;;;;;;5053851;28;20029;-70
2023/03/06 08:12:59;;;;;;;21.00;10.02;;;5.60;67.40;;;;;;5053886;28;20416;-70
2023/03/06 08:15:25;;;;;;;14.88;9.68;;;5.70;67.00;;;;;;5053592;28;20021;-70
2023/03/06 08:17:51;;;;;;;23.73;10.88;;;5.70;67.60;;;;;;5054168;28;20021;-69
2023/03/06 08:20:17;;;;;;;22.88;11.07;;;5.70;67.60;;;;;;5039263;28;20037;-68
2023/03/06 08:22:43;;;;;;;19.85;10.07;;;5.70;67.50;;;;;;5033928;28;20104;-68
2023/03/06 08:25:10;;;;;;;21.25;9.50;;;5.80;67.30;;;;;;5034007;28;20377;-69
2023/03/06 08:27:36;;;;;;;23.75;11.20;;;5.80;67.60;;;;;;5033473;28;20031;-70
2023/03/06 08:30:02;;;;;;;21.50;10.95;;;5.80;66.80;;;;;;5033619;28;20433;-70
2023/03/06 08:32:28;;;;;;;20.17;10.60;;;5.80;67.00;;;;;;5033305;28;20377;-69
2023/03/06 08:34:54;;;;;;;16.73;10.05;;;5.90;67.60;;;;;;5033829;28;20021;-69
2023/03/06 08:37:19;;;;;;;17.95;10.75;;;5.90;67.10;;;;;;5014681;28;20026;-70
2023/03/06 08:39:45;;;;;;;21.00;10.32;;;5.90;66.90;;;;;;5033994;28;20057;-70
2023/03/06 08:42:11;;;;;;;23.05;10.88;;;5.90;66.90;;;;;;5033377;28;20025;-69
2023/03/06 08:44:37;;;;;;;19.30;9.88;;;5.90;66.60;;;;;;5049578;28;20028;-70
2023/03/06 08:47:03;;;;;;;18.73;10.13;;;6.00;66.40;;;;;;5053465;28;20025;-69
2023/03/06 08:49:29;;;;;;;16.92;9.73;;;6.00;66.10;;;;;;5052998;28;20086;-69
2023/03/06 08:51:54;;;;;;;21.60;10.63;;;6.10;66.20;;;;;;5053032;28;20424;-70
2023/03/06 08:54:20;;;;;;;18.13;10.02;;;6.10;67.00;;;;;;5052910;28;20032;-70
2023/03/06 08:56:46;;;;;;;16.40;9.63;;;6.20;66.50;;;;;;5053363;28;20037;-69
2023/03/06 08:59:12;;;;;;;17.25;10.13;;;6.30;66.00;;;;;;5053196;28;20060;-69
2023/03/06 09:01:39;;;;;;;18.42;10.13;;;6.40;65.60;;;;;;5052887;28;20025;-69
2023/03/06 09:04:08;;;;;;;19.33;9.57;;;6.50;64.80;;;;;;5053183;28;20132;-70
2023/03/06 09:06:37;;;;;;;18.13;8.98;;;6.60;64.50;;;;;;5052457;28;20477;-69
2023/03/06 09:09:04;;;;;;;17.83;9.30;;;6.60;64.50;;;;;;5053219;28;20032;-69
2023/03/06 09:11:31;;;;;;;16.33;9.32;;;6.70;64.40;;;;;;5052338;28;20051;-69
2023/03/06 09:13:57;;;;;;;14.75;9.15;;;6.80;63.90;;;;;;5053256;28;20462;-70
2023/03/06 09:16:24;;;;;;;18.98;9.02;;;6.90;63.90;;;;;;5052505;28;20029;-69
2023/03/06 09:18:51;;;;;;;16.50;8.48;;;7.00;63.40;;;;;;5052914;28;20037;-69
2023/03/06 09:21:18;;;;;;;15.38;8.90;;;7.10;63.00;;;;;;5052771;28;20029;-70
2023/03/06 09:23:44;;;;;;;35.38;10.45;;;7.20;62.70;;;;;;5052880;28;20391;-74
2023/03/06 09:26:11;;;;;;;13.25;8.18;;;7.30;63.20;;;;;;5052910;28;20104;-67
2023/03/06 09:28:37;;;;;;;14.55;8.60;;;7.40;63.80;;;;;;5052573;28;20060;-68
2023/03/06 09:31:18;;;;;;;200.02;19.45;;;7.60;62.70;;;;;;5034912;28;20053;-69
2023/03/06 09:33:44;;;;;;;16.15;8.43;;;7.70;61.30;;;;;;5051931;28;20365;-67
2023/03/06 09:36:15;;;;;;;14.93;8.57;;;7.80;60.40;;;;;;5052670;28;20029;-70
2023/03/06 09:38:41;;;;;;;13.50;8.40;;;7.70;60.20;;;;;;5039825;28;20049;-71
2023/03/06 09:41:21;;;;;;;15.95;8.23;;;7.80;60.80;;;;;;5052976;28;20091;-69
2023/03/06 09:43:50;;;;;;;15.03;9.37;;;7.80;60.50;;;;;;5052315;28;20032;-70
2023/03/06 09:46:40;;;;;;;13.30;8.52;;;7.70;60.40;;;;;;5052307;28;20040;-70
2023/03/06 09:49:33;;;;;;;14.05;8.77;;;7.70;60.70;;;;;;5052378;28;20087;-70
2023/03/06 09:52:28;;;;;;;20.85;9.52;;;7.70;60.40;;;;;;5052963;28;20457;-71
2023/03/06 09:55:11;;;;;;;20.17;8.88;;;7.80;61.80;;;;;;5046811;28;20079;-70
2023/03/06 09:57:51;;;;;;;17.00;9.00;;;7.90;61.10;;;;;;5050674;28;20029;-72
2023/03/06 10:00:38;;;;;;;17.90;9.52;;;8.00;60.90;;;;;;5052296;28;20029;-71
2023/03/06 10:03:04;;;;;;;17.80;8.85;;;8.00;59.60;;;;;;5052412;28;20021;-71
2023/03/06 10:05:39;;;;;;;13.75;8.82;;;7.90;59.90;;;;;;5051967;28;20388;-71
2023/03/06 10:08:17;;;;;;;16.48;9.20;;;7.90;60.30;;;;;;5052436;28;20025;-72
2023/03/06 10:10:49;;;;;;;22.83;9.75;;;8.00;60.10;;;;;;5051783;28;20025;-71
2023/03/06 10:13:27;;;;;;;16.17;9.40;;;8.00;60.00;;;;;;5052622;28;20395;-71
2023/03/06 10:16:20;;;;;;;15.20;9.35;;;8.00;59.90;;;;;;5052407;28;20103;-72
2023/03/06 10:18:46;;;;;;;15.00;9.25;;;7.90;59.80;;;;;;5052240;28;20037;-72
2023/03/06 10:21:21;;;;;;;17.10;9.63;;;7.80;60.20;;;;;;5052385;28;20465;-71
2023/03/06 10:23:53;;;;;;;14.68;9.48;;;7.80;61.20;;;;;;5052473;28;20029;-70
2023/03/06 10:26:23;;;;;;;19.30;10.32;;;7.70;60.70;;;;;;5041536;28;20021;-71
2023/03/06 10:29:29;;;;;;;18.35;10.80;;;7.60;61.30;;;;;;5032710;28;20433;-71
2023/03/06 10:32:08;;;;;;;14.80;9.30;;;7.70;61.50;;;;;;5023949;28;20083;-70
2023/03/06 10:34:37;;;;;;;17.65;9.57;;;7.70;61.60;;;;;;5039204;28;20038;-70
2023/03/06 10:37:17;;;;;;;17.25;9.95;;;7.60;62.00;;;;;;5055337;28;20021;-70
2023/03/06 10:39:42;;;;;;;17.45;9.63;;;7.70;62.10;;;;;;5052896;28;20064;-71
2023/03/06 10:42:08;;;;;;;19.00;10.35;;;7.80;61.50;;;;;;5047226;28;20033;-71
2023/03/06 10:44:33;;;;;;;22.10;10.02;;;7.70;61.50;;;;;;5044305;28;20045;-70
2023/03/06 10:47:30;;;;;;;14.70;9.40;;;7.70;61.20;;;;;;5052684;28;20025;-71
2023/03/06 10:50:00;;;;;;;14.25;8.65;;;7.70;61.60;;;;;;5052047;28;20037;-70
2023/03/06 10:52:34;;;;;;;16.60;9.50;;;7.70;61.80;;;;;;5051872;28;20457;-70
2023/03/06 10:55:23;;;;;;;18.60;9.35;;;7.80;61.40;;;;;;5051920;28;20025;-70
2023/03/06 10:57:49;;;;;;;18.55;9.48;;;7.80;61.50;;;;;;5051466;28;20041;-70
2023/03/06 11:00:34;;;;;;;20.75;10.07;;;7.90;61.60;;;;;;5052871;28;20150;-70
2023/03/06 11:03:20;;;;;;;20.55;9.80;;;8.00;61.30;;;;;;5055341;28;20086;-71
2023/03/06 11:06:14;;;;;;;17.65;9.25;;;8.00;61.00;;;;;;5054897;28;20037;-71
2023/03/06 11:08:42;;;;;;;21.33;10.30;;;8.10;61.10;;;;;;5051528;28;20486;-71
2023/03/06 11:11:13;;;;;;;15.95;9.43;;;8.10;60.70;;;;;;5055303;28;20039;-71
2023/03/06 11:13:41;;;;;;;;;;;8.10;60.70;;;;;;5055142;28;20436;-70
2023/03/06 11:16:18;;;;;;;17.25;8.68;;;8.20;60.60;;;;;;5055263;28;19905;-71
2023/03/06 11:19:02;;;;;;;15.23;8.95;;;8.30;60.50;;;;;;5054682;28;20064;-71
2023/03/06 11:21:34;;;;;;;15.23;9.27;;;8.30;60.10;;;;;;5054820;28;20036;-72
2023/03/06 11:24:11;;;;;;;21.90;9.82;;;8.30;59.90;;;;;;5055181;28;20021;-71
2023/03/06 11:27:02;;;;;;;17.65;9.48;;;8.40;59.70;;;;;;5053453;28;20461;-71
2023/03/06 11:29:42;;;;;;;17.83;10.10;;;8.30;59.40;;;;;;5054597;28;20037;-76
2023/03/06 11:32:21;;;;;;;15.75;9.45;;;8.20;59.20;;;;;;5055003;28;20120;-70
2023/03/06 11:34:56;;;;;;;18.73;10.00;;;8.20;59.70;;;;;;5054428;28;20269;-71
2023/03/06 11:37:31;;;;;;;18.00;9.82;;;8.30;59.70;;;;;;5054824;28;20029;-72
2023/03/06 11:40:22;;;;;;;17.30;9.73;;;8.40;59.90;;;;;;5054303;28;20045;-70
2023/03/06 11:42:48;;;;;;;;;;;8.40;59.90;;;;;;5054802;28;20033;-71
2023/03/06 11:45:48;;;;;;;18.42;9.60;;;8.50;60.00;;;;;;5054713;28;19905;-71
2023/03/06 11:48:13;;;;;;;16.27;9.70;;;8.40;59.50;;;;;;5036814;28;20493;-69
2023/03/06 11:50:48;;;;;;;18.67;10.32;;;8.40;59.60;;;;;;5054113;28;20076;-70
2023/03/06 11:53:20;;;;;;;14.63;9.80;;;8.30;59.80;;;;;;5054402;28;20033;-69
2023/03/06 11:55:57;;;;;;;14.52;9.25;;;8.20;59.90;;;;;;5053883;28;20025;-72
2023/03/06 11:59:06;;;;;;;16.48;9.52;;;8.20;60.00;;;;;;5054486;28;20062;-71
2023/03/06 12:01:32;;;;;;;18.48;9.85;;;8.20;60.00;;;;;;5054042;28;20055;-70
2023/03/06 12:04:22;;;;;;;24.35;10.48;;;8.20;60.30;;;;;;5041985;28;20029;-71
2023/03/06 12:07:09;;;;;;;19.48;9.90;;;8.20;61.00;;;;;;5043207;28;20030;-72
2023/03/06 12:09:45;;;;;;;15.93;9.10;;;8.20;59.30;;;;;;5043587;28;20397;-72
2023/03/06 12:12:17;;;;;;;18.25;9.95;;;8.20;59.50;;;;;;5043686;28;20071;-72
2023/03/06 12:15:08;;;;;;;19.67;11.55;;;8.10;60.00;;;;;;5042361;28;20053;-72
2023/03/06 12:17:53;;;;;;;15.35;9.55;;;8.10;60.20;;;;;;5043662;28;20017;-71
2023/03/06 12:20:55;;;;;;;17.23;9.18;;;8.10;60.60;;;;;;5042308;28;20053;-71
2023/03/06 12:23:50;;;;;;;16.13;9.88;;;8.10;59.90;;;;;;5043785;28;20017;-73
2023/03/06 12:26:28;;;;;;;19.17;9.75;;;8.10;60.20;;;;;;5041734;28;20036;-71
2023/03/06 12:29:01;;;;;;;18.63;10.40;;;8.20;60.40;;;;;;5040938;28;20097;-70
2023/03/06 12:31:45;;;;;;;16.50;9.30;;;8.20;60.70;;;;;;5048429;28;20026;-70
2023/03/06 12:34:26;;;;;;;17.60;10.75;;;8.20;61.20;;;;;;5042218;28;20492;-71
2023/03/06 12:37:10;;;;;;;16.42;9.70;;;8.30;60.70;;;;;;5035836;28;20065;-70
2023/03/06 12:39:55;;;;;;;17.73;10.23;;;8.30;60.60;;;;;;5033360;28;20060;-70
2023/03/06 12:42:43;;;;;;;17.58;9.85;;;8.40;60.10;;;;;;5033914;28;20030;-70
2023/03/06 12:45:31;;;;;;;19.38;10.50;;;8.40;60.50;;;;;;5034060;28;20028;-70
2023/03/06 12:47:57;;;;;;;22.88;10.95;;;8.60;60.40;;;;;;5033738;28;20033;-70
2023/03/06 12:50:26;;;;;;;19.75;10.32;;;8.50;59.70;;;;;;5033569;28;20033;-70
2023/03/06 12:52:55;;;;;;;17.00;10.23;;;8.60;60.00;;;;;;5033004;28;20235;-70
2023/03/06 12:55:21;;;;;;;19.92;10.80;;;8.60;59.90;;;;;;5033352;28;20104;-70
2023/03/06 12:57:48;;;;;;;17.83;10.65;;;8.50;59.70;;;;;;5032878;28;20045;-70
2023/03/06 13:00:34;;;;;;;20.10;10.32;;;8.50;59.80;;;;;;5033252;28;20075;-69